KSWF

Stewart International Airport

New York, New York, USA
METAR KSWF 191245Z 00000KT 5SM BCFG BR SKC 18/18 A2990 RMK VIS WEST 2SM
Observed Flight Rules
Sep-19 @ 12:45 UTC (30 minutes ago) Marginal Visual Flight Rules
Visibility Clouds Conditions
5 miles
  • Clear skies
  • Patches of
  • Fog
  • Mist
Temperatures Readings
Current 18°C / 64°F
Dewpoint 18°C / 64°F
Humidity 100%
Altimeter 29.9" Hg
Pressure 1013 hPa
Elevation 150
METAR KSWF 191245Z 00000KT 5SM BCFG BR SKC 18/18 A2990 RMK VIS WEST 2SM
Observed Flight Rules
Sep-19 @ 12:45 UTC
(30 minutes ago)
MVFR
Clouds
  • Clear skies
Conditions
  • Patches of
  • Fog
  • Mist
Temperature Dewpoint
18°C / 64°F 18°C / 64°F
Humidity Altimeter Pressure
100% 29.9" Hg 1013 hPa